createdAt,value
2018-03-17T00:00:04.081Z,14.93
2018-03-17T00:02:31.762Z,12.80
2018-03-17T00:04:59.416Z,12.53
2018-03-17T00:07:27.168Z,13.90
2018-03-17T00:09:54.848Z,11.60
2018-03-17T00:12:22.708Z,12.17
2018-03-17T00:14:50.430Z,15.33
2018-03-17T00:17:18.099Z,18.50
2018-03-17T00:19:45.792Z,13.30
2018-03-17T00:22:13.522Z,12.87
2018-03-17T00:24:41.206Z,12.63
2018-03-17T00:27:08.872Z,12.00
2018-03-17T00:29:36.520Z,11.27
2018-03-17T00:32:04.199Z,13.00
2018-03-17T00:34:31.868Z,10.83
2018-03-17T00:37:00.296Z,11.10
2018-03-17T00:39:28.749Z,12.27
2018-03-17T00:41:57.406Z,9.07
2018-03-17T00:44:25.058Z,12.70
2018-03-17T00:46:52.721Z,11.80
2018-03-17T00:49:21.416Z,11.57
2018-03-17T00:51:49.147Z,11.97
2018-03-17T00:54:16.866Z,10.00
2018-03-17T00:56:44.527Z,11.07
2018-03-17T00:59:12.212Z,21.77
2018-03-17T01:01:39.915Z,12.93
2018-03-17T01:04:07.621Z,16.40
2018-03-17T01:06:35.305Z,17.87
2018-03-17T01:09:03.019Z,10.00
2018-03-17T01:11:31.628Z,9.67
2018-03-17T01:13:59.336Z,8.93
2018-03-17T01:16:27.059Z,15.87
2018-03-17T01:18:54.720Z,13.63
2018-03-17T01:21:22.529Z,11.70
2018-03-17T01:23:50.193Z,14.80
2018-03-17T01:26:18.628Z,11.17
2018-03-17T01:28:46.256Z,14.00
2018-03-17T01:31:13.962Z,15.03
2018-03-17T01:33:41.640Z,10.87
2018-03-17T01:36:09.376Z,13.13
2018-03-17T01:38:37.217Z,14.03
2018-03-17T01:41:04.904Z,11.27
2018-03-17T01:43:32.556Z,14.80
2018-03-17T01:46:00.204Z,11.23
2018-03-17T01:48:27.863Z,12.67
2018-03-17T01:50:55.528Z,10.93
2018-03-17T01:53:23.265Z,10.47
2018-03-17T01:55:50.962Z,9.63
2018-03-17T01:58:18.581Z,13.90
2018-03-17T02:00:47.023Z,13.40
2018-03-17T02:03:14.704Z,12.20
2018-03-17T02:05:42.327Z,15.13
2018-03-17T02:08:10.002Z,14.27
2018-03-17T02:10:37.663Z,12.20
2018-03-17T02:13:05.297Z,11.87
2018-03-17T02:15:32.949Z,11.00
2018-03-17T02:18:00.631Z,12.50
2018-03-17T02:20:28.304Z,16.50
2018-03-17T02:22:55.964Z,12.00
2018-03-17T02:25:23.872Z,11.00
2018-03-17T02:27:51.575Z,13.07
2018-03-17T02:30:19.372Z,10.77
2018-03-17T02:32:48.680Z,12.83
2018-03-17T02:35:17.760Z,12.20
2018-03-17T02:37:45.428Z,11.63
2018-03-17T02:40:14.373Z,11.70
2018-03-17T02:42:42.000Z,11.17
2018-03-17T02:45:09.664Z,11.23
2018-03-17T02:47:37.332Z,10.67
2018-03-17T02:50:05.072Z,10.70
2018-03-17T02:52:33.602Z,14.63
2018-03-17T02:55:02.027Z,8.27
2018-03-17T02:57:30.437Z,13.20
2018-03-17T02:59:58.104Z,12.80
2018-03-17T03:02:25.767Z,11.67
2018-03-17T03:04:53.397Z,14.50
2018-03-17T03:07:21.832Z,9.70
2018-03-17T03:09:49.487Z,11.27
2018-03-17T03:12:17.132Z,10.80
2018-03-17T03:14:44.782Z,9.80
2018-03-17T03:17:12.438Z,18.53
2018-03-17T03:19:40.080Z,10.13
2018-03-17T03:22:07.855Z,8.20
2018-03-17T03:24:35.518Z,16.77
2018-03-17T03:27:03.144Z,10.97
2018-03-17T03:29:30.793Z,11.00
2018-03-17T03:31:58.558Z,15.33
2018-03-17T03:34:26.211Z,22.50
2018-03-17T03:36:53.883Z,9.03
2018-03-17T03:39:22.328Z,6.90
2018-03-17T03:41:50.004Z,11.10
2018-03-17T03:44:17.668Z,10.80
2018-03-17T03:46:45.358Z,12.50
2018-03-17T03:49:14.456Z,15.10
2018-03-17T03:51:42.886Z,10.23
2018-03-17T03:54:10.564Z,9.80
2018-03-17T03:56:38.227Z,12.33
2018-03-17T03:59:05.950Z,8.27
2018-03-17T04:01:33.616Z,10.37
2018-03-17T04:04:01.245Z,9.57
2018-03-17T04:06:28.908Z,8.10
2018-03-17T04:08:56.637Z,11.63
2018-03-17T04:11:24.285Z,9.57
2018-03-17T04:13:51.972Z,7.77
2018-03-17T04:16:20.439Z,7.80
2018-03-17T04:18:48.850Z,9.83
2018-03-17T04:21:16.807Z,10.50
2018-03-17T04:23:44.511Z,9.97
2018-03-17T04:26:12.205Z,9.83
2018-03-17T04:28:40.689Z,12.50
2018-03-17T04:31:09.222Z,10.40
2018-03-17T04:33:36.860Z,10.17
2018-03-17T04:36:04.532Z,8.73
2018-03-17T04:38:32.245Z,9.90
2018-03-17T04:40:59.881Z,11.30
2018-03-17T04:43:27.596Z,10.93
2018-03-17T04:45:55.286Z,8.77
2018-03-17T04:48:22.959Z,13.40
2018-03-17T04:50:50.680Z,10.07
2018-03-17T04:53:18.363Z,9.50
2018-03-17T04:55:46.011Z,10.53
2018-03-17T04:58:13.700Z,10.27
2018-03-17T05:00:41.356Z,9.20
2018-03-17T05:03:09.020Z,9.80
2018-03-17T05:05:37.248Z,8.77
2018-03-17T05:08:04.917Z,11.23
2018-03-17T05:10:32.601Z,11.40
2018-03-17T05:13:00.289Z,11.37
2018-03-17T05:15:27.965Z,9.57
2018-03-17T05:17:56.411Z,9.60
2018-03-17T05:20:24.071Z,7.97
2018-03-17T05:22:51.747Z,8.00
2018-03-17T05:25:19.408Z,6.30
2018-03-17T05:27:47.071Z,8.80
2018-03-17T05:30:16.388Z,11.83
2018-03-17T05:32:48.525Z,9.93
2018-03-17T05:35:16.201Z,7.97
2018-03-17T05:37:43.888Z,11.23
2018-03-17T05:40:11.584Z,9.97
2018-03-17T05:42:39.269Z,11.70
2018-03-17T05:45:06.976Z,7.97
2018-03-17T05:47:34.666Z,9.13
2018-03-17T05:50:02.373Z,12.93
2018-03-17T05:52:30.017Z,11.00
2018-03-17T05:54:57.701Z,9.33
2018-03-17T05:57:26.185Z,11.80
2018-03-17T05:59:54.579Z,9.73
2018-03-17T06:02:22.243Z,13.17
2018-03-17T06:04:49.928Z,9.33
2018-03-17T06:07:17.579Z,11.10
2018-03-17T06:09:46.280Z,8.60
2018-03-17T06:12:14.579Z,11.63
2018-03-17T06:14:43.540Z,9.60
2018-03-17T06:17:11.916Z,14.57
2018-03-17T06:19:40.440Z,25.17
2018-03-17T06:22:08.385Z,21.37
2018-03-17T06:24:36.114Z,27.00
2018-03-17T06:27:03.846Z,20.03
2018-03-17T06:29:32.311Z,28.47
2018-03-17T06:32:00.765Z,22.40
2018-03-17T06:34:28.461Z,24.13
2018-03-17T06:36:57.456Z,21.53
2018-03-17T06:39:25.915Z,27.50
2018-03-17T06:41:53.645Z,20.43
2018-03-17T06:44:21.284Z,26.13
2018-03-17T06:46:48.967Z,23.53
2018-03-17T06:49:16.627Z,24.97
2018-03-17T06:51:44.320Z,28.90
2018-03-17T06:54:12.003Z,22.27
2018-03-17T06:56:40.460Z,21.77
2018-03-17T06:59:08.147Z,25.27
2018-03-17T07:01:35.824Z,23.77
2018-03-17T07:04:03.614Z,33.40
2018-03-17T07:06:31.305Z,69.40
2018-03-17T07:08:58.982Z,34.67
2018-03-17T07:11:27.443Z,39.97
2018-03-17T07:13:55.102Z,56.97
2018-03-17T07:16:22.821Z,46.10
2018-03-17T07:18:50.559Z,39.57
2018-03-17T07:21:18.204Z,49.23
2018-03-17T07:23:46.691Z,34.97
2018-03-17T07:26:14.440Z,41.80
2018-03-17T07:28:42.840Z,47.53
2018-03-17T07:31:10.577Z,40.73
2018-03-17T07:33:39.033Z,34.40
2018-03-17T07:36:06.793Z,35.47
2018-03-17T07:38:34.468Z,35.20
2018-03-17T07:41:02.183Z,49.70
2018-03-17T07:43:29.828Z,40.70
2018-03-17T07:45:57.532Z,46.60
2018-03-17T07:48:25.344Z,57.77
2018-03-17T07:50:52.990Z,49.73
2018-03-17T07:53:21.497Z,60.00
2018-03-17T07:55:49.169Z,49.30
2018-03-17T07:58:16.810Z,49.93
2018-03-17T08:00:44.471Z,53.77
2018-03-17T08:03:12.220Z,52.20
2018-03-17T08:05:40.642Z,54.33
2018-03-17T08:08:08.367Z,47.93
2018-03-17T08:10:36.077Z,65.30
2018-03-17T08:13:03.756Z,53.60
2018-03-17T08:15:31.479Z,53.87
2018-03-17T08:17:59.156Z,48.10
2018-03-17T08:20:26.858Z,56.90
2018-03-17T08:22:55.318Z,45.77
2018-03-17T08:25:22.980Z,56.13
2018-03-17T08:27:50.671Z,80.50
2018-03-17T08:30:19.143Z,40.17
2018-03-17T08:32:47.639Z,42.47
2018-03-17T08:35:15.349Z,48.57
2018-03-17T08:37:43.048Z,50.63
2018-03-17T08:40:11.588Z,44.03
2018-03-17T08:42:39.275Z,50.57
2018-03-17T08:45:07.743Z,41.90
2018-03-17T08:47:35.433Z,47.00
2018-03-17T08:50:03.101Z,51.80
2018-03-17T08:52:30.795Z,47.57
2018-03-17T08:54:58.464Z,59.60
2018-03-17T08:57:26.113Z,53.00
2018-03-17T08:59:53.816Z,50.00
2018-03-17T09:02:22.268Z,46.93
2018-03-17T09:04:49.963Z,48.00
2018-03-17T09:07:18.541Z,45.97
2018-03-17T09:09:47.056Z,45.57
2018-03-17T09:12:14.812Z,45.13
2018-03-17T09:14:42.540Z,47.30
2018-03-17T09:17:10.184Z,47.80
2018-03-17T09:19:38.196Z,41.90
2018-03-17T09:22:06.763Z,53.60
2018-03-17T09:24:35.239Z,46.07
2018-03-17T09:27:02.940Z,45.23
2018-03-17T09:29:30.658Z,49.13
2018-03-17T09:31:59.141Z,43.33
2018-03-17T09:34:26.880Z,44.53
2018-03-17T09:36:54.594Z,44.10
2018-03-17T09:39:22.282Z,44.17
2018-03-17T09:41:49.952Z,39.67
2018-03-17T09:44:17.632Z,38.57
2018-03-17T09:46:45.320Z,47.93
2018-03-17T09:49:13.007Z,43.43
2018-03-17T09:51:40.702Z,39.80
2018-03-17T09:54:08.549Z,43.80
2018-03-17T09:56:36.223Z,42.97
2018-03-17T09:59:03.931Z,51.10
2018-03-17T10:01:31.684Z,48.90
2018-03-17T10:04:00.155Z,46.20
2018-03-17T10:06:28.651Z,46.87
2018-03-17T10:08:56.343Z,42.40
2018-03-17T10:11:23.992Z,50.87
2018-03-17T10:13:51.751Z,45.80
2018-03-17T10:16:19.492Z,56.23
2018-03-17T10:18:47.170Z,58.47
2018-03-17T10:21:14.870Z,53.23
2018-03-17T10:23:42.600Z,69.43
2018-03-17T10:26:10.356Z,66.90
2018-03-17T10:28:38.807Z,60.87
2018-03-17T10:31:07.281Z,66.40
2018-03-17T10:33:35.751Z,65.17
2018-03-17T10:36:03.549Z,69.83
2018-03-17T10:38:32.017Z,68.37
2018-03-17T10:40:59.753Z,64.50
2018-03-17T10:43:27.482Z,65.00
2018-03-17T10:45:55.169Z,67.13
2018-03-17T10:48:22.864Z,66.20
2018-03-17T10:50:51.368Z,67.80
2018-03-17T10:53:19.810Z,79.67
2018-03-17T10:55:48.256Z,74.73
2018-03-17T10:58:15.976Z,73.57
2018-03-17T11:00:47.831Z,81.30
2018-03-17T11:03:15.572Z,77.23
2018-03-17T11:05:44.228Z,83.63
2018-03-17T11:08:11.949Z,96.93
2018-03-17T11:10:39.685Z,103.17
2018-03-17T11:13:08.120Z,78.73
2018-03-17T11:15:35.827Z,94.60
2018-03-17T11:18:04.536Z,91.53
2018-03-17T11:20:32.304Z,80.77
2018-03-17T11:23:00.441Z,72.63
2018-03-17T11:25:28.244Z,102.17
2018-03-17T11:27:56.132Z,96.53
2018-03-17T11:30:24.042Z,86.30
2018-03-17T11:32:51.928Z,84.30
2018-03-17T11:35:21.031Z,79.87
2018-03-17T11:37:49.104Z,81.23
2018-03-17T11:40:17.091Z,96.50
2018-03-17T11:42:44.881Z,80.43
2018-03-17T11:45:12.800Z,73.87
2018-03-17T11:47:40.757Z,84.63
2018-03-17T11:50:08.814Z,74.77
2018-03-17T11:52:36.778Z,74.13
2018-03-17T11:55:05.492Z,90.63
2018-03-17T11:57:33.625Z,85.40
2018-03-17T12:00:02.064Z,87.77
2018-03-17T12:02:29.795Z,86.17
2018-03-17T12:04:57.533Z,89.83
2018-03-17T12:07:25.280Z,86.60
2018-03-17T12:09:53.780Z,78.90
2018-03-17T12:12:21.555Z,72.80
2018-03-17T12:14:49.400Z,77.83
2018-03-17T12:17:17.885Z,65.67
2018-03-17T12:19:46.032Z,63.47
2018-03-17T12:22:14.571Z,72.03
2018-03-17T12:24:42.340Z,74.57
2018-03-17T12:27:10.820Z,70.30
2018-03-17T12:29:38.894Z,65.33
2018-03-17T12:32:06.976Z,63.67
2018-03-17T12:34:34.978Z,60.30
2018-03-17T12:37:03.147Z,67.10
2018-03-17T12:39:31.643Z,61.70
2018-03-17T12:41:59.542Z,67.40
2018-03-17T12:44:27.529Z,71.20
2018-03-17T12:46:55.459Z,79.07
2018-03-17T12:49:23.372Z,59.43
2018-03-17T12:51:51.611Z,65.03
2018-03-17T12:54:19.466Z,61.07
2018-03-17T12:56:47.512Z,65.53
2018-03-17T12:59:15.373Z,60.87
2018-03-17T13:01:43.456Z,60.43
2018-03-17T13:04:11.366Z,73.30
2018-03-17T13:06:39.240Z,57.80
2018-03-17T13:09:07.179Z,67.63
2018-03-17T13:11:35.358Z,79.07
2018-03-17T13:14:03.349Z,75.20
2018-03-17T13:16:31.300Z,63.73
2018-03-17T13:18:59.559Z,68.90
2018-03-17T13:21:27.485Z,57.27
2018-03-17T13:23:56.070Z,50.80
2018-03-17T13:26:24.038Z,49.20
2018-03-17T13:28:51.861Z,45.23
2018-03-17T13:31:19.729Z,51.33
2018-03-17T13:33:47.664Z,47.13
2018-03-17T13:36:27.353Z,50.03
2018-03-17T13:38:55.406Z,44.17
2018-03-17T13:41:23.400Z,43.30
2018-03-17T13:43:51.136Z,51.70
2018-03-17T13:46:19.028Z,44.77
2018-03-17T13:48:46.921Z,45.60
2018-03-17T13:51:14.981Z,40.10
2018-03-17T13:53:43.274Z,47.70
2018-03-17T13:56:11.191Z,39.13
2018-03-17T13:58:39.698Z,42.20
2018-03-17T14:01:07.392Z,42.70
2018-03-17T14:03:35.430Z,45.00
2018-03-17T14:06:03.180Z,44.53
2018-03-17T14:08:30.908Z,42.03
2018-03-17T14:10:58.831Z,46.30
2018-03-17T14:13:26.764Z,43.13
2018-03-17T14:15:54.742Z,38.63
2018-03-17T14:18:23.068Z,45.67
2018-03-17T14:20:50.737Z,39.57
2018-03-17T14:23:18.425Z,38.83
2018-03-17T14:25:46.872Z,39.50
2018-03-17T14:28:14.532Z,41.17
2018-03-17T14:30:42.226Z,41.87
2018-03-17T14:33:10.680Z,42.43
2018-03-17T14:35:38.453Z,40.77
2018-03-17T14:38:06.646Z,38.80
2018-03-17T14:40:34.573Z,36.53
2018-03-17T14:43:02.622Z,36.17
2018-03-17T14:45:31.571Z,42.37
2018-03-17T15:04:01.501Z,46.83
2018-03-17T15:06:29.229Z,37.70
2018-03-17T15:08:57.688Z,35.57
2018-03-17T15:11:25.403Z,36.87
2018-03-17T15:13:53.831Z,34.27
2018-03-17T15:16:21.600Z,31.47
2018-03-17T15:18:49.301Z,37.37
2018-03-17T15:21:17.011Z,35.03
2018-03-17T15:23:44.697Z,35.20
2018-03-17T15:26:12.412Z,32.27
2018-03-17T15:28:40.169Z,39.73
2018-03-17T15:31:07.851Z,35.13
2018-03-17T15:33:35.625Z,35.33
2018-03-17T15:36:03.399Z,38.50
2018-03-17T15:38:31.845Z,34.53
2018-03-17T15:40:59.551Z,40.77
2018-03-17T15:43:27.285Z,39.87
2018-03-17T15:45:55.018Z,39.30
2018-03-17T15:48:22.806Z,37.50
2018-03-17T15:50:50.820Z,41.50
2018-03-17T15:53:18.874Z,34.47
2018-03-17T15:55:47.569Z,32.30
2018-03-17T16:01:27.937Z,33.70
2018-03-17T16:03:56.108Z,33.20
2018-03-17T16:06:24.145Z,32.60
2018-03-17T16:08:54.523Z,30.57
2018-03-17T16:11:22.449Z,31.90
2018-03-17T16:13:50.586Z,33.60
2018-03-17T16:16:19.188Z,36.27
2018-03-17T16:18:47.617Z,30.50
2018-03-17T16:21:16.682Z,33.60
2018-03-17T16:23:45.132Z,35.67
2018-03-17T16:26:13.130Z,36.50
2018-03-17T16:28:41.497Z,33.23
2018-03-17T16:31:10.016Z,33.80
2018-03-17T16:33:38.094Z,38.37
2018-03-17T16:36:05.795Z,29.37
2018-03-17T16:38:33.788Z,34.80
2018-03-17T16:41:01.489Z,32.50
2018-03-17T16:43:29.143Z,32.10
2018-03-17T16:45:57.264Z,35.00
2018-03-17T16:48:25.762Z,37.07
2018-03-17T16:50:54.830Z,29.33
2018-03-17T16:53:23.014Z,39.60
2018-03-17T16:55:52.115Z,35.00
2018-03-17T16:58:20.424Z,32.17
2018-03-17T17:00:48.453Z,31.13
2018-03-17T17:03:16.700Z,30.20
2018-03-17T17:05:45.334Z,32.90
2018-03-17T17:08:13.522Z,31.07
2018-03-17T17:10:41.299Z,34.13
2018-03-17T17:13:08.973Z,32.63
2018-03-17T17:15:36.760Z,31.47
2018-03-17T17:18:04.724Z,28.60
2018-03-17T17:20:32.534Z,31.33
2018-03-17T17:23:00.361Z,32.20
2018-03-17T17:25:28.231Z,29.70
2018-03-17T17:27:56.900Z,33.83
2018-03-17T17:30:25.062Z,31.80
2018-03-17T17:32:52.929Z,35.67
2018-03-17T17:35:21.482Z,38.17
2018-03-17T17:37:49.198Z,35.77
2018-03-17T17:40:18.818Z,32.47
2018-03-17T17:42:47.323Z,32.07
2018-03-17T17:45:15.785Z,37.40
2018-03-17T17:47:43.501Z,31.50
2018-03-17T17:50:11.169Z,34.20
2018-03-17T17:52:39.141Z,30.47
2018-03-17T17:55:07.738Z,36.87
2018-03-17T17:57:36.357Z,33.13
2018-03-17T18:00:04.265Z,33.87
2018-03-17T18:02:32.018Z,31.33
2018-03-17T18:04:59.702Z,30.67
2018-03-17T18:07:28.541Z,34.57
2018-03-17T18:09:56.256Z,30.93
2018-03-17T18:12:24.740Z,38.87
2018-03-17T18:14:53.204Z,33.70
2018-03-17T18:17:20.862Z,35.33
2018-03-17T18:19:52.082Z,31.60
2018-03-17T18:22:19.812Z,38.30
2018-03-17T18:24:47.515Z,38.50
2018-03-17T18:27:15.241Z,38.80
2018-03-17T18:29:42.983Z,36.17
2018-03-17T18:32:10.665Z,36.83
2018-03-17T18:34:38.414Z,38.67
2018-03-17T18:37:06.124Z,37.70
2018-03-17T18:39:34.595Z,33.20
2018-03-17T18:42:02.543Z,41.00
2018-03-17T18:44:30.615Z,36.30
2018-03-17T18:46:59.022Z,38.50
2018-03-17T18:49:26.905Z,37.37
2018-03-17T18:52:02.861Z,40.27
2018-03-17T18:54:31.011Z,37.80
2018-03-17T18:56:59.035Z,44.27
2018-03-17T18:59:26.951Z,36.03
2018-03-17T19:01:57.894Z,43.00
2018-03-17T19:04:26.593Z,45.37
2018-03-17T19:06:55.877Z,38.47
2018-03-17T19:09:24.992Z,42.80
2018-03-17T19:11:52.994Z,71.33
2018-03-17T19:14:20.691Z,83.03
2018-03-17T19:16:48.479Z,112.23
2018-03-17T19:19:18.026Z,51.50
2018-03-17T19:21:45.681Z,40.03
2018-03-17T19:24:13.500Z,46.07
2018-03-17T19:26:42.091Z,40.57
2018-03-17T19:29:10.535Z,48.47
2018-03-17T19:31:38.345Z,40.43
2018-03-17T19:34:06.200Z,45.73
2018-03-17T19:36:34.662Z,42.77
2018-03-17T19:39:03.207Z,41.30
2018-03-17T19:41:30.992Z,42.93
2018-03-17T19:43:59.604Z,39.97
2018-03-17T19:46:28.292Z,43.40
2018-03-17T19:48:56.068Z,40.50
2018-03-17T19:51:23.896Z,39.57
2018-03-17T19:53:52.445Z,44.87
2018-03-17T19:56:20.198Z,39.30
2018-03-17T19:58:47.984Z,39.43
2018-03-17T20:01:15.794Z,38.57
2018-03-17T20:03:43.498Z,40.10
2018-03-17T20:06:11.184Z,46.13
2018-03-17T20:08:38.985Z,48.50
2018-03-17T20:11:06.742Z,43.97
2018-03-17T20:13:34.621Z,45.40
2018-03-17T20:16:02.356Z,43.70
2018-03-17T20:18:30.046Z,46.70
2018-03-17T20:20:57.747Z,48.20
2018-03-17T20:23:25.433Z,40.50
2018-03-17T20:25:53.901Z,53.40
2018-03-17T20:28:22.604Z,46.27
2018-03-17T20:30:50.531Z,40.73
2018-03-17T20:33:18.262Z,47.40
2018-03-17T20:35:45.976Z,44.17
2018-03-17T20:38:15.382Z,42.83
2018-03-17T20:40:43.861Z,45.87
2018-03-17T20:43:12.264Z,44.93
2018-03-17T20:45:40.019Z,39.00
2018-03-17T20:48:07.901Z,46.50
2018-03-17T20:50:35.765Z,47.23
2018-03-17T20:53:03.652Z,46.90
2018-03-17T20:55:31.562Z,46.97
2018-03-17T20:58:00.094Z,48.43
2018-03-17T21:00:28.055Z,46.27
2018-03-17T21:02:56.633Z,42.43
2018-03-17T21:05:24.381Z,40.67
2018-03-17T21:07:53.554Z,42.37
2018-03-17T21:10:22.054Z,39.73
2018-03-17T21:12:54.252Z,37.53
2018-03-17T21:15:24.157Z,45.73
2018-03-17T21:17:53.254Z,43.60
2018-03-17T21:20:21.022Z,45.20
2018-03-17T21:22:49.994Z,44.57
2018-03-17T21:25:19.492Z,50.20
2018-03-17T21:27:47.164Z,53.10
2018-03-17T21:30:14.842Z,48.30
2018-03-17T21:32:42.488Z,49.17
2018-03-17T21:35:10.239Z,51.70
2018-03-17T21:37:37.923Z,54.23
2018-03-17T21:40:05.604Z,50.60
2018-03-17T21:42:33.332Z,47.53
2018-03-17T21:45:01.010Z,49.40
2018-03-17T21:47:28.662Z,46.73
2018-03-17T21:49:56.473Z,43.30
2018-03-17T21:52:25.963Z,45.07
2018-03-17T21:54:54.829Z,47.10
2018-03-17T21:57:23.690Z,47.87
2018-03-17T21:59:52.593Z,45.87
2018-03-17T22:02:21.428Z,44.17
2018-03-17T22:04:50.025Z,46.83
2018-03-17T22:07:18.931Z,52.53
2018-03-17T22:09:48.008Z,45.73
2018-03-17T22:12:16.626Z,49.67
2018-03-17T22:14:44.356Z,50.63
2018-03-17T22:17:12.031Z,50.27
2018-03-17T22:19:39.885Z,51.60
2018-03-17T22:22:08.747Z,58.50
2018-03-17T22:24:38.222Z,56.80
2018-03-17T22:27:06.836Z,53.40
2018-03-17T22:29:34.855Z,52.73
2018-03-17T22:32:02.913Z,55.43
2018-03-17T22:34:30.696Z,50.67
2018-03-17T22:36:58.437Z,56.67
2018-03-17T22:39:26.605Z,59.00
2018-03-17T22:41:54.318Z,64.00
2018-03-17T22:44:22.008Z,66.70
2018-03-17T22:46:49.665Z,54.60
2018-03-17T22:49:17.345Z,53.13
2018-03-17T22:51:45.032Z,59.70
2018-03-17T22:54:12.745Z,54.53
2018-03-17T22:56:40.427Z,53.70
2018-03-17T22:59:08.112Z,50.00
2018-03-17T23:01:35.800Z,57.10
2018-03-17T23:04:03.553Z,56.00
2018-03-17T23:06:31.240Z,56.33
2018-03-17T23:08:59.662Z,50.27
2018-03-17T23:11:27.353Z,56.23
2018-03-17T23:13:55.031Z,49.77
2018-03-17T23:16:23.485Z,49.57
2018-03-17T23:18:51.227Z,53.43
2018-03-17T23:21:18.942Z,51.67
2018-03-17T23:23:47.372Z,51.10
2018-03-17T23:26:15.097Z,51.03
2018-03-17T23:28:42.866Z,58.17
2018-03-17T23:31:10.516Z,48.30
2018-03-17T23:33:38.209Z,49.70
2018-03-17T23:36:05.957Z,56.03
2018-03-17T23:38:33.684Z,50.87
2018-03-17T23:41:02.213Z,60.73
2018-03-17T23:43:29.944Z,57.67
2018-03-17T23:45:57.661Z,50.60
2018-03-17T23:48:25.408Z,51.47
2018-03-17T23:50:53.147Z,50.40
2018-03-17T23:53:20.868Z,47.80
2018-03-17T23:55:48.576Z,49.27
2018-03-17T23:58:16.315Z,52.30
